Time;durP1;ratioP1;P1;durP2;ratioP2;P2;SDS_P1;SDS_P2;PMS_P1;PMS_P2;Temp;Humidity;BMP_temperature;BMP_pressure;BME280_temperature;BME280_humidity;BME280_pressure;Samples;Min_cycle;Max_cycle;Signal;HPM_P1;HPM_P2
2019/10/06 00:00:33;;;;;;;7.7;6.900001;;;;;;;5.11;100;95418.33;;;;
2019/10/06 00:01:35;;;;;;;7.7;6.900001;;;;;;;5.11;100;95418.33;;;;
2019/10/06 00:02:36;;;;;;;7.849999;6.149999;;;;;;;5.07;100;95411.72;;;;
2019/10/06 00:03:37;;;;;;;7.849999;6.149999;;;;;;;5.07;100;95411.72;;;;
2019/10/06 00:04:38;;;;;;;7.849999;6.149999;;;;;;;5.07;100;95411.72;;;;
2019/10/06 00:05:39;;;;;;;7.849999;6.149999;;;;;;;5.07;100;95411.72;;;;
2019/10/06 00:06:41;;;;;;;7.849999;6.149999;;;;;;;5.07;100;95411.72;;;;
2019/10/06 00:07:42;;;;;;;7.849999;6.149999;;;;;;;5.07;100;95411.72;;;;
2019/10/06 00:08:43;;;;;;;7.849999;6.149999;;;;;;;5.07;100;95411.72;;;;
2019/10/06 00:09:44;;;;;;;7.849999;6.149999;;;;;;;5.07;100;95411.72;;;;
2019/10/06 00:10:45;;;;;;;7.849999;6.149999;;;;;;;5.07;100;95411.72;;;;
2019/10/06 00:11:46;;;;;;;7.849999;6.149999;;;;;;;5.07;100;95411.72;;;;
2019/10/06 00:12:47;;;;;;;6.849999;5.450001;;;;;;;5;100;95402.84;;;;
2019/10/06 00:13:49;;;;;;;6.849999;5.450001;;;;;;;5;100;95402.84;;;;
2019/10/06 00:14:50;;;;;;;6.849999;5.450001;;;;;;;5;100;95402.84;;;;
2019/10/06 00:15:51;;;;;;;6.849999;5.450001;;;;;;;5;100;95402.84;;;;
2019/10/06 00:16:52;;;;;;;6.849999;5.450001;;;;;;;5;100;95402.84;;;;
2019/10/06 00:17:53;;;;;;;6.849999;5.450001;;;;;;;5;100;95402.84;;;;
2019/10/06 00:18:54;;;;;;;6.849999;5.450001;;;;;;;5;100;95402.84;;;;
2019/10/06 00:19:56;;;;;;;6.849999;5.450001;;;;;;;5;100;95402.84;;;;
2019/10/06 00:20:57;;;;;;;6.849999;5.450001;;;;;;;5;100;95402.84;;;;
2019/10/06 00:21:58;;;;;;;6.849999;5.450001;;;;;;;5;100;95402.84;;;;
2019/10/06 00:22:59;;;;;;;6.05;4.75;;;;;;;4.79;100;95391.83;;;;
2019/10/06 00:24:00;;;;;;;6.05;4.75;;;;;;;4.79;100;95391.83;;;;
2019/10/06 00:25:01;;;;;;;6.05;4.75;;;;;;;4.79;100;95391.83;;;;
2019/10/06 00:26:03;;;;;;;6.05;4.75;;;;;;;4.79;100;95391.83;;;;
2019/10/06 00:27:04;;;;;;;6.05;4.75;;;;;;;4.79;100;95391.83;;;;
2019/10/06 00:28:05;;;;;;;6.05;4.75;;;;;;;4.79;100;95391.83;;;;
2019/10/06 00:29:06;;;;;;;6.05;4.75;;;;;;;4.79;100;95391.83;;;;
2019/10/06 00:30:11;;;;;;;6.05;4.75;;;;;;;4.79;100;95391.83;;;;
2019/10/06 00:31:48;;;;;;;6.05;4.75;;;;;;;4.79;100;95391.83;;;;
2019/10/06 00:32:50;;;;;;;6.05;4.75;;;;;;;4.79;100;95391.83;;;;
2019/10/06 00:33:51;;;;;;;6.400001;4.95;;;;;;;4.57;100;95395.21;;;;
2019/10/06 00:34:52;;;;;;;6.400001;4.95;;;;;;;4.57;100;95395.21;;;;
2019/10/06 00:35:53;;;;;;;6.400001;4.95;;;;;;;4.57;100;95395.21;;;;
2019/10/06 00:36:54;;;;;;;6.400001;4.95;;;;;;;4.57;100;95395.21;;;;
2019/10/06 00:37:55;;;;;;;6.400001;4.95;;;;;;;4.57;100;95395.21;;;;
2019/10/06 00:38:56;;;;;;;6.400001;4.95;;;;;;;4.57;100;95395.21;;;;
2019/10/06 00:39:58;;;;;;;6.400001;4.95;;;;;;;4.57;100;95395.21;;;;
2019/10/06 00:40:59;;;;;;;6.400001;4.95;;;;;;;4.57;100;95395.21;;;;
2019/10/06 00:42:00;;;;;;;6.400001;4.95;;;;;;;4.57;100;95395.21;;;;
2019/10/06 00:43:01;;;;;;;6.400001;4.95;;;;;;;4.57;100;95395.21;;;;
2019/10/06 00:44:03;;;;;;;6.400001;4.95;;;;;;;4.57;100;95395.21;;;;
2019/10/06 00:45:04;;;;;;;6.649999;4.65;;;;;;;4.27;100;95374.55;;;;
2019/10/06 00:46:35;;;;;;;6.649999;4.65;;;;;;;4.27;100;95374.55;;;;
2019/10/06 00:47:42;;;;;;;6.649999;4.65;;;;;;;4.27;100;95374.55;;;;
2019/10/06 00:49:19;;;;;;;6.649999;4.65;;;;;;;4.27;100;95374.55;;;;
2019/10/06 00:56:27;;;;;;;6.349999;5;;;;;;;4.04;100;95363.7;;;;
2019/10/06 01:02:27;;;;;;;6.349999;5;;;;;;;4.04;100;95363.7;;;;
2019/10/06 01:03:41;;;;;;;6.349999;5;;;;;;;4.04;100;95363.7;;;;
2019/10/06 01:04:43;;;;;;;6.349999;5;;;;;;;4.04;100;95363.7;;;;
2019/10/06 01:09:48;;;;;;;5.649999;4.8;;;;;;;3.76;100;95368.58;;;;
2019/10/06 01:10:50;;;;;;;5.649999;4.8;;;;;;;3.76;100;95368.58;;;;
2019/10/06 01:11:51;;;;;;;5.649999;4.8;;;;;;;3.76;100;95368.58;;;;
2019/10/06 01:12:52;;;;;;;5.649999;4.8;;;;;;;3.76;100;95368.58;;;;
2019/10/06 01:13:53;;;;;;;5.649999;4.8;;;;;;;3.76;100;95368.58;;;;
2019/10/06 01:14:55;;;;;;;5.649999;4.8;;;;;;;3.76;100;95368.58;;;;
2019/10/06 01:15:57;;;;;;;5.799999;4.349999;;;;;;;3.59;100;95371.72;;;;
2019/10/06 01:16:58;;;;;;;5.799999;4.349999;;;;;;;3.59;100;95371.72;;;;
2019/10/06 01:17:59;;;;;;;5.799999;4.349999;;;;;;;3.59;100;95371.72;;;;
2019/10/06 01:19:01;;;;;;;5.799999;4.349999;;;;;;;3.59;100;95371.72;;;;
2019/10/06 01:20:03;;;;;;;5.799999;4.349999;;;;;;;3.59;100;95371.72;;;;
2019/10/06 01:21:05;;;;;;;5.799999;4.349999;;;;;;;3.59;100;95371.72;;;;
2019/10/06 01:22:06;;;;;;;5.799999;4.349999;;;;;;;3.59;100;95371.72;;;;
2019/10/06 01:23:07;;;;;;;5.799999;4.349999;;;;;;;3.59;100;95371.72;;;;
2019/10/06 01:24:08;;;;;;;5.799999;4.349999;;;;;;;3.59;100;95371.72;;;;
2019/10/06 01:25:10;;;;;;;5.799999;4.349999;;;;;;;3.59;100;95371.72;;;;
2019/10/06 01:26:12;;;;;;;5.799999;4.349999;;;;;;;3.59;100;95371.72;;;;
2019/10/06 01:27:13;;;;;;;5;4.5;;;;;;;3.37;100;95368.22;;;;
2019/10/06 01:28:14;;;;;;;5;4.5;;;;;;;3.37;100;95368.22;;;;
2019/10/06 01:29:15;;;;;;;5;4.5;;;;;;;3.37;100;95368.22;;;;
2019/10/06 01:30:17;;;;;;;5;4.5;;;;;;;3.37;100;95368.22;;;;
2019/10/06 01:31:18;;;;;;;5;4.5;;;;;;;3.37;100;95368.22;;;;
2019/10/06 01:32:19;;;;;;;5;4.5;;;;;;;3.37;100;95368.22;;;;
2019/10/06 01:33:20;;;;;;;5;4.5;;;;;;;3.37;100;95368.22;;;;
2019/10/06 01:34:22;;;;;;;5;4.5;;;;;;;3.37;100;95368.22;;;;
2019/10/06 01:35:23;;;;;;;5;4.5;;;;;;;3.37;100;95368.22;;;;
2019/10/06 01:36:24;;;;;;;5;4.5;;;;;;;3.37;100;95368.22;;;;
2019/10/06 01:37:25;;;;;;;5.05;4.55;;;;;;;3.24;100;95356.48;;;;
2019/10/06 01:38:27;;;;;;;5.05;4.55;;;;;;;3.24;100;95356.48;;;;
2019/10/06 01:39:28;;;;;;;5.05;4.55;;;;;;;3.24;100;95356.48;;;;
2019/10/06 01:40:29;;;;;;;5.05;4.55;;;;;;;3.24;100;95356.48;;;;
2019/10/06 01:41:30;;;;;;;5.05;4.55;;;;;;;3.24;100;95356.48;;;;
2019/10/06 01:42:31;;;;;;;5.05;4.55;;;;;;;3.24;100;95356.48;;;;
2019/10/06 01:43:33;;;;;;;5.05;4.55;;;;;;;3.24;100;95356.48;;;;
2019/10/06 01:44:34;;;;;;;5.05;4.55;;;;;;;3.24;100;95356.48;;;;
2019/10/06 01:45:35;;;;;;;5.05;4.55;;;;;;;3.24;100;95356.48;;;;
2019/10/06 01:46:36;;;;;;;5.05;4.55;;;;;;;3.24;100;95356.48;;;;
2019/10/06 01:47:37;;;;;;;5.05;4.55;;;;;;;3.24;100;95356.48;;;;
2019/10/06 01:48:38;;;;;;;5.25;4.6;;;;;;;3.18;100;95351.92;;;;
2019/10/06 01:49:40;;;;;;;5.25;4.6;;;;;;;3.18;100;95351.92;;;;
2019/10/06 01:50:42;;;;;;;5.25;4.6;;;;;;;3.18;100;95351.92;;;;
2019/10/06 01:51:43;;;;;;;5.25;4.6;;;;;;;3.18;100;95351.92;;;;
2019/10/06 01:52:44;;;;;;;5.25;4.6;;;;;;;3.18;100;95351.92;;;;
2019/10/06 01:53:45;;;;;;;5.25;4.6;;;;;;;3.18;100;95351.92;;;;
2019/10/06 01:54:46;;;;;;;5.25;4.6;;;;;;;3.18;100;95351.92;;;;
2019/10/06 01:55:48;;;;;;;5.25;4.6;;;;;;;3.18;100;95351.92;;;;
2019/10/06 01:56:49;;;;;;;5.25;4.6;;;;;;;3.18;100;95351.92;;;;
2019/10/06 01:57:51;;;;;;;5.25;4.6;;;;;;;3.18;100;95351.92;;;;
2019/10/06 01:58:52;;;;;;;8.15;6.75;;;;;;;3.4;100;95340.34;;;;
2019/10/06 01:59:53;;;;;;;8.15;6.75;;;;;;;3.4;100;95340.34;;;;
2019/10/06 02:01:00;;;;;;;8.15;6.75;;;;;;;3.4;100;95340.34;;;;
2019/10/06 02:02:09;;;;;;;8.15;6.75;;;;;;;3.4;100;95340.34;;;;
2019/10/06 02:03:10;;;;;;;8.15;6.75;;;;;;;3.4;100;95340.34;;;;
2019/10/06 02:04:12;;;;;;;8.15;6.75;;;;;;;3.4;100;95340.34;;;;
2019/10/06 02:05:13;;;;;;;8.15;6.75;;;;;;;3.4;100;95340.34;;;;
2019/10/06 02:06:14;;;;;;;8.15;6.75;;;;;;;3.4;100;95340.34;;;;
2019/10/06 02:07:16;;;;;;;8.15;6.75;;;;;;;3.4;100;95340.34;;;;
2019/10/06 02:08:17;;;;;;;8.15;6.75;;;;;;;3.4;100;95340.34;;;;
2019/10/06 02:09:18;;;;;;;9.75;7.949999;;;;;;;3.59;100;95345.43;;;;
2019/10/06 02:10:20;;;;;;;9.75;7.949999;;;;;;;3.59;100;95345.43;;;;
2019/10/06 02:11:21;;;;;;;9.75;7.949999;;;;;;;3.59;100;95345.43;;;;
2019/10/06 02:12:22;;;;;;;9.75;7.949999;;;;;;;3.59;100;95345.43;;;;
2019/10/06 02:13:23;;;;;;;9.75;7.949999;;;;;;;3.59;100;95345.43;;;;
2019/10/06 02:14:24;;;;;;;9.75;7.949999;;;;;;;3.59;100;95345.43;;;;
2019/10/06 02:15:25;;;;;;;9.75;7.949999;;;;;;;3.59;100;95345.43;;;;
2019/10/06 02:16:27;;;;;;;9.75;7.949999;;;;;;;3.59;100;95345.43;;;;
2019/10/06 02:17:28;;;;;;;9.75;7.949999;;;;;;;3.59;100;95345.43;;;;
2019/10/06 02:18:29;;;;;;;9.75;7.949999;;;;;;;3.59;100;95345.43;;;;
2019/10/06 02:19:30;;;;;;;9.75;7.949999;;;;;;;3.59;100;95345.43;;;;
2019/10/06 02:20:32;;;;;;;9.450001;7.649999;;;;;;;3.71;100;95350.98;;;;
2019/10/06 02:21:33;;;;;;;9.450001;7.649999;;;;;;;3.71;100;95350.98;;;;
2019/10/06 02:22:34;;;;;;;9.450001;7.649999;;;;;;;3.71;100;95350.98;;;;
2019/10/06 02:23:35;;;;;;;9.450001;7.649999;;;;;;;3.71;100;95350.98;;;;
2019/10/06 02:24:36;;;;;;;9.450001;7.649999;;;;;;;3.71;100;95350.98;;;;
2019/10/06 02:25:40;;;;;;;9.450001;7.649999;;;;;;;3.71;100;95350.98;;;;
2019/10/06 02:26:41;;;;;;;9.450001;7.649999;;;;;;;3.71;100;95350.98;;;;
2019/10/06 02:27:42;;;;;;;9.450001;7.649999;;;;;;;3.71;100;95350.98;;;;
2019/10/06 02:28:43;;;;;;;9.450001;7.649999;;;;;;;3.71;100;95350.98;;;;
2019/10/06 02:29:44;;;;;;;9.450001;7.649999;;;;;;;3.71;100;95350.98;;;;
2019/10/06 02:30:46;;;;;;;10.85;7.949999;;;;;;;3.74;100;95359.55;;;;
2019/10/06 02:31:47;;;;;;;10.85;7.949999;;;;;;;3.74;100;95359.55;;;;
2019/10/06 02:32:48;;;;;;;10.85;7.949999;;;;;;;3.74;100;95359.55;;;;
2019/10/06 02:33:49;;;;;;;10.85;7.949999;;;;;;;3.74;100;95359.55;;;;
2019/10/06 02:34:50;;;;;;;10.85;7.949999;;;;;;;3.74;100;95359.55;;;;
2019/10/06 02:35:51;;;;;;;10.85;7.949999;;;;;;;3.74;100;95359.55;;;;
2019/10/06 02:36:52;;;;;;;10.85;7.949999;;;;;;;3.74;100;95359.55;;;;
2019/10/06 02:37:53;;;;;;;10.85;7.949999;;;;;;;3.74;100;95359.55;;;;
2019/10/06 02:38:55;;;;;;;10.85;7.949999;;;;;;;3.74;100;95359.55;;;;
2019/10/06 02:39:56;;;;;;;10.85;7.949999;;;;;;;3.74;100;95359.55;;;;
2019/10/06 02:40:57;;;;;;;9.299999;8.35;;;;;;;3.94;100;95345.43;;;;
2019/10/06 02:41:59;;;;;;;9.299999;8.35;;;;;;;3.94;100;95345.43;;;;
2019/10/06 02:43:00;;;;;;;9.299999;8.35;;;;;;;3.94;100;95345.43;;;;
2019/10/06 02:44:01;;;;;;;9.299999;8.35;;;;;;;3.94;100;95345.43;;;;
2019/10/06 02:45:02;;;;;;;9.299999;8.35;;;;;;;3.94;100;95345.43;;;;
2019/10/06 02:46:04;;;;;;;9.299999;8.35;;;;;;;3.94;100;95345.43;;;;
2019/10/06 02:47:06;;;;;;;9.299999;8.35;;;;;;;3.94;100;95345.43;;;;
2019/10/06 02:48:07;;;;;;;9.299999;8.35;;;;;;;3.94;100;95345.43;;;;
2019/10/06 02:49:08;;;;;;;9.299999;8.35;;;;;;;3.94;100;95345.43;;;;
2019/10/06 02:50:10;;;;;;;9.299999;8.35;;;;;;;3.94;100;95345.43;;;;
2019/10/06 02:51:14;;;;;;;9.299999;8.35;;;;;;;3.94;100;95345.43;;;;
2019/10/06 02:52:15;;;;;;;9.65;8.599999;;;;;;;3.95;100;95329.22;;;;
2019/10/06 02:53:16;;;;;;;9.65;8.599999;;;;;;;3.95;100;95329.22;;;;
2019/10/06 02:54:19;;;;;;;9.65;8.599999;;;;;;;3.95;100;95329.22;;;;
2019/10/06 02:55:22;;;;;;;9.65;8.599999;;;;;;;3.95;100;95329.22;;;;
2019/10/06 02:56:23;;;;;;;9.65;8.599999;;;;;;;3.95;100;95329.22;;;;
2019/10/06 02:57:24;;;;;;;9.65;8.599999;;;;;;;3.95;100;95329.22;;;;
2019/10/06 02:58:25;;;;;;;9.65;8.599999;;;;;;;3.95;100;95329.22;;;;
2019/10/06 02:59:26;;;;;;;9.65;8.599999;;;;;;;3.95;100;95329.22;;;;
2019/10/06 03:00:28;;;;;;;9.65;8.599999;;;;;;;3.95;100;95329.22;;;;
2019/10/06 03:01:29;;;;;;;9.65;8.599999;;;;;;;3.95;100;95329.22;;;;
2019/10/06 03:02:30;;;;;;;11;8.700002;;;;;;;3.82;100;95314;;;;
2019/10/06 03:03:31;;;;;;;11;8.700002;;;;;;;3.82;100;95314;;;;
2019/10/06 03:04:32;;;;;;;11;8.700002;;;;;;;3.82;100;95314;;;;
2019/10/06 03:05:34;;;;;;;11;8.700002;;;;;;;3.82;100;95314;;;;
2019/10/06 03:06:35;;;;;;;11;8.700002;;;;;;;3.82;100;95314;;;;
2019/10/06 03:07:37;;;;;;;11;8.700002;;;;;;;3.82;100;95314;;;;
2019/10/06 03:08:38;;;;;;;11;8.700002;;;;;;;3.82;100;95314;;;;
2019/10/06 03:09:39;;;;;;;11;8.700002;;;;;;;3.82;100;95314;;;;
2019/10/06 03:10:40;;;;;;;11;8.700002;;;;;;;3.82;100;95314;;;;
2019/10/06 03:11:41;;;;;;;11;8.700002;;;;;;;3.82;100;95314;;;;
2019/10/06 03:12:42;;;;;;;9.649999;8.1;;;;;;;3.56;100;95312.05;;;;
2019/10/06 03:13:44;;;;;;;9.649999;8.1;;;;;;;3.56;100;95312.05;;;;
2019/10/06 03:14:45;;;;;;;9.649999;8.1;;;;;;;3.56;100;95312.05;;;;
2019/10/06 03:15:46;;;;;;;9.649999;8.1;;;;;;;3.56;100;95312.05;;;;
2019/10/06 03:16:47;;;;;;;9.649999;8.1;;;;;;;3.56;100;95312.05;;;;
2019/10/06 03:17:48;;;;;;;9.649999;8.1;;;;;;;3.56;100;95312.05;;;;
2019/10/06 03:18:49;;;;;;;9.649999;8.1;;;;;;;3.56;100;95312.05;;;;
2019/10/06 03:19:50;;;;;;;9.649999;8.1;;;;;;;3.56;100;95312.05;;;;
2019/10/06 03:20:52;;;;;;;9.649999;8.1;;;;;;;3.56;100;95312.05;;;;
2019/10/06 03:21:53;;;;;;;9.649999;8.1;;;;;;;3.56;100;95312.05;;;;
2019/10/06 03:22:54;;;;;;;9.649999;8.1;;;;;;;3.56;100;95312.05;;;;
2019/10/06 03:23:55;;;;;;;11.6;10.05;;;;;;;3.46;100;95308.86;;;;
2019/10/06 03:24:56;;;;;;;11.6;10.05;;;;;;;3.46;100;95308.86;;;;
2019/10/06 03:25:57;;;;;;;11.6;10.05;;;;;;;3.46;100;95308.86;;;;
2019/10/06 03:27:00;;;;;;;11.6;10.05;;;;;;;3.46;100;95308.86;;;;
2019/10/06 03:28:01;;;;;;;11.6;10.05;;;;;;;3.46;100;95308.86;;;;
2019/10/06 03:29:03;;;;;;;11.6;10.05;;;;;;;3.46;100;95308.86;;;;
2019/10/06 03:30:04;;;;;;;11.6;10.05;;;;;;;3.46;100;95308.86;;;;
2019/10/06 03:31:08;;;;;;;11.6;10.05;;;;;;;3.46;100;95308.86;;;;
2019/10/06 03:32:09;;;;;;;11.6;10.05;;;;;;;3.46;100;95308.86;;;;
2019/10/06 03:33:14;;;;;;;11.6;10.05;;;;;;;3.46;100;95308.86;;;;
2019/10/06 03:34:15;;;;;;;20.1;14.1;;;;;;;3.55;100;95316.97;;;;
2019/10/06 03:35:19;;;;;;;20.1;14.1;;;;;;;3.55;100;95316.97;;;;
2019/10/06 03:40:54;;;;;;;20.1;14.1;;;;;;;3.55;100;95316.97;;;;
2019/10/06 03:42:05;;;;;;;20.1;14.1;;;;;;;3.55;100;95316.97;;;;
2019/10/06 03:43:12;;;;;;;20.1;14.1;;;;;;;3.55;100;95316.97;;;;
2019/10/06 03:49:16;;;;;;;18.45;14.25;;;;;;;3.85;100;95298;;;;
2019/10/06 03:58:31;;;;;;;16.85;12.85;;;;;;;4.06;100;95316.75;;;;
2019/10/06 03:59:32;;;;;;;16.85;12.85;;;;;;;4.06;100;95316.75;;;;
2019/10/06 04:00:33;;;;;;;16.85;12.85;;;;;;;4.06;100;95316.75;;;;
2019/10/06 04:01:35;;;;;;;16.85;12.85;;;;;;;4.06;100;95316.75;;;;
2019/10/06 04:02:36;;;;;;;16.85;12.85;;;;;;;4.06;100;95316.75;;;;
2019/10/06 04:03:38;;;;;;;16.85;12.85;;;;;;;4.06;100;95316.75;;;;
2019/10/06 04:04:39;;;;;;;16.85;12.85;;;;;;;4.06;100;95316.75;;;;
2019/10/06 04:05:40;;;;;;;15.25;12.25;;;;;;;4.27;100;95300.64;;;;
2019/10/06 04:06:41;;;;;;;15.25;12.25;;;;;;;4.27;100;95300.64;;;;
2019/10/06 04:07:43;;;;;;;15.25;12.25;;;;;;;4.27;100;95300.64;;;;
2019/10/06 04:08:44;;;;;;;15.25;12.25;;;;;;;4.27;100;95300.64;;;;
2019/10/06 04:09:45;;;;;;;15.25;12.25;;;;;;;4.27;100;95300.64;;;;
2019/10/06 04:10:46;;;;;;;15.25;12.25;;;;;;;4.27;100;95300.64;;;;
2019/10/06 04:11:47;;;;;;;15.25;12.25;;;;;;;4.27;100;95300.64;;;;
2019/10/06 04:12:49;;;;;;;15.25;12.25;;;;;;;4.27;100;95300.64;;;;
2019/10/06 04:13:50;;;;;;;15.25;12.25;;;;;;;4.27;100;95300.64;;;;
2019/10/06 04:14:59;;;;;;;15.25;12.25;;;;;;;4.27;100;95300.64;;;;
2019/10/06 04:16:47;;;;;;;15.25;12.25;;;;;;;4.27;100;95300.64;;;;
2019/10/06 04:17:59;;;;;;;16.85;13.5;;;;;;;4.4;100;95305.64;;;;
2019/10/06 04:19:11;;;;;;;16.85;13.5;;;;;;;4.4;100;95305.64;;;;
2019/10/06 04:20:16;;;;;;;16.85;13.5;;;;;;;4.4;100;95305.64;;;;
2019/10/06 04:21:17;;;;;;;16.85;13.5;;;;;;;4.4;100;95305.64;;;;
2019/10/06 04:22:19;;;;;;;16.85;13.5;;;;;;;4.4;100;95305.64;;;;
2019/10/06 04:23:20;;;;;;;16.85;13.5;;;;;;;4.4;100;95305.64;;;;
2019/10/06 04:24:21;;;;;;;16.85;13.5;;;;;;;4.4;100;95305.64;;;;
2019/10/06 04:25:22;;;;;;;16.85;13.5;;;;;;;4.4;100;95305.64;;;;
2019/10/06 04:26:23;;;;;;;16.85;13.5;;;;;;;4.4;100;95305.64;;;;
2019/10/06 04:27:24;;;;;;;19.8;15.05;;;;;;;4.56;100;95311.08;;;;
2019/10/06 04:28:26;;;;;;;19.8;15.05;;;;;;;4.56;100;95311.08;;;;
2019/10/06 04:29:27;;;;;;;19.8;15.05;;;;;;;4.56;100;95311.08;;;;
2019/10/06 04:30:28;;;;;;;19.8;15.05;;;;;;;4.56;100;95311.08;;;;
2019/10/06 04:31:34;;;;;;;19.8;15.05;;;;;;;4.56;100;95311.08;;;;
2019/10/06 04:32:36;;;;;;;19.8;15.05;;;;;;;4.56;100;95311.08;;;;
2019/10/06 04:33:37;;;;;;;19.8;15.05;;;;;;;4.56;100;95311.08;;;;
2019/10/06 04:34:38;;;;;;;19.8;15.05;;;;;;;4.56;100;95311.08;;;;
2019/10/06 04:35:39;;;;;;;19.8;15.05;;;;;;;4.56;100;95311.08;;;;
2019/10/06 04:36:41;;;;;;;19.8;15.05;;;;;;;4.56;100;95311.08;;;;
2019/10/06 04:37:42;;;;;;;23.4;16.95;;;;;;;4.66;100;95312.36;;;;
2019/10/06 04:38:43;;;;;;;23.4;16.95;;;;;;;4.66;100;95312.36;;;;
2019/10/06 04:39:44;;;;;;;23.4;16.95;;;;;;;4.66;100;95312.36;;;;
2019/10/06 04:40:46;;;;;;;23.4;16.95;;;;;;;4.66;100;95312.36;;;;
2019/10/06 04:41:47;;;;;;;23.4;16.95;;;;;;;4.66;100;95312.36;;;;
2019/10/06 04:42:48;;;;;;;23.4;16.95;;;;;;;4.66;100;95312.36;;;;
2019/10/06 04:43:49;;;;;;;23.4;16.95;;;;;;;4.66;100;95312.36;;;;
2019/10/06 04:44:50;;;;;;;23.4;16.95;;;;;;;4.66;100;95312.36;;;;
2019/10/06 04:45:51;;;;;;;23.4;16.95;;;;;;;4.66;100;95312.36;;;;
2019/10/06 04:46:52;;;;;;;23.4;16.95;;;;;;;4.66;100;95312.36;;;;
2019/10/06 04:47:54;;;;;;;23.4;16.95;;;;;;;4.66;100;95312.36;;;;
2019/10/06 04:48:55;;;;;;;21.25;16.45;;;;;;;4.79;100;95328.97;;;;
2019/10/06 04:49:56;;;;;;;21.25;16.45;;;;;;;4.79;100;95328.97;;;;
2019/10/06 04:50:57;;;;;;;21.25;16.45;;;;;;;4.79;100;95328.97;;;;
2019/10/06 04:51:58;;;;;;;21.25;16.45;;;;;;;4.79;100;95328.97;;;;
2019/10/06 04:52:59;;;;;;;21.25;16.45;;;;;;;4.79;100;95328.97;;;;
2019/10/06 04:54:01;;;;;;;21.25;16.45;;;;;;;4.79;100;95328.97;;;;
2019/10/06 04:55:02;;;;;;;21.25;16.45;;;;;;;4.79;100;95328.97;;;;
2019/10/06 04:56:04;;;;;;;21.25;16.45;;;;;;;4.79;100;95328.97;;;;
2019/10/06 04:57:05;;;;;;;21.25;16.45;;;;;;;4.79;100;95328.97;;;;
2019/10/06 04:58:06;;;;;;;21.25;16.45;;;;;;;4.79;100;95328.97;;;;
2019/10/06 04:59:07;;;;;;;19.05;15.3;;;;;;;4.69;100;95316.5;;;;
2019/10/06 05:00:08;;;;;;;19.05;15.3;;;;;;;4.69;100;95316.5;;;;
2019/10/06 05:01:10;;;;;;;19.05;15.3;;;;;;;4.69;100;95316.5;;;;
2019/10/06 05:02:11;;;;;;;19.05;15.3;;;;;;;4.69;100;95316.5;;;;
2019/10/06 05:03:12;;;;;;;19.05;15.3;;;;;;;4.69;100;95316.5;;;;
2019/10/06 05:04:13;;;;;;;19.05;15.3;;;;;;;4.69;100;95316.5;;;;
2019/10/06 05:05:14;;;;;;;19.05;15.3;;;;;;;4.69;100;95316.5;;;;
2019/10/06 05:06:16;;;;;;;19.05;15.3;;;;;;;4.69;100;95316.5;;;;
2019/10/06 05:07:17;;;;;;;19.05;15.3;;;;;;;4.69;100;95316.5;;;;
2019/10/06 05:08:18;;;;;;;19.05;15.3;;;;;;;4.69;100;95316.5;;;;
2019/10/06 05:09:19;;;;;;;19.05;15.3;;;;;;;4.69;100;95316.5;;;;
2019/10/06 05:10:20;;;;;;;21.35;15.95;;;;;;;4.58;100;95325.9;;;;
2019/10/06 05:11:43;;;;;;;21.35;15.95;;;;;;;4.58;100;95325.9;;;;
2019/10/06 05:12:44;;;;;;;21.35;15.95;;;;;;;4.58;100;95325.9;;;;
2019/10/06 05:13:45;;;;;;;21.35;15.95;;;;;;;4.58;100;95325.9;;;;
2019/10/06 05:14:46;;;;;;;21.35;15.95;;;;;;;4.58;100;95325.9;;;;
2019/10/06 05:15:47;;;;;;;21.35;15.95;;;;;;;4.58;100;95325.9;;;;
2019/10/06 05:16:49;;;;;;;21.35;15.95;;;;;;;4.58;100;95325.9;;;;
2019/10/06 05:17:50;;;;;;;21.35;15.95;;;;;;;4.58;100;95325.9;;;;
2019/10/06 05:18:52;;;;;;;21.35;15.95;;;;;;;4.58;100;95325.9;;;;
2019/10/06 05:19:53;;;;;;;21.35;15.95;;;;;;;4.58;100;95325.9;;;;
2019/10/06 05:20:54;;;;;;;21.85;16.8;;;;;;;4.5;100;95318.55;;;;
2019/10/06 05:21:55;;;;;;;21.85;16.8;;;;;;;4.5;100;95318.55;;;;
2019/10/06 05:22:56;;;;;;;21.85;16.8;;;;;;;4.5;100;95318.55;;;;
2019/10/06 05:23:57;;;;;;;21.85;16.8;;;;;;;4.5;100;95318.55;;;;
2019/10/06 05:24:58;;;;;;;21.85;16.8;;;;;;;4.5;100;95318.55;;;;
2019/10/06 05:25:59;;;;;;;21.85;16.8;;;;;;;4.5;100;95318.55;;;;
2019/10/06 05:27:01;;;;;;;21.85;16.8;;;;;;;4.5;100;95318.55;;;;
2019/10/06 05:28:02;;;;;;;21.85;16.8;;;;;;;4.5;100;95318.55;;;;
2019/10/06 05:29:03;;;;;;;21.85;16.8;;;;;;;4.5;100;95318.55;;;;
2019/10/06 05:30:04;;;;;;;21.85;16.8;;;;;;;4.5;100;95318.55;;;;
2019/10/06 05:31:06;;;;;;;21.4;16.55;;;;;;;4.48;100;95312.98;;;;
2019/10/06 05:32:07;;;;;;;21.4;16.55;;;;;;;4.48;100;95312.98;;;;
2019/10/06 05:33:08;;;;;;;21.4;16.55;;;;;;;4.48;100;95312.98;;;;
2019/10/06 05:34:09;;;;;;;21.4;16.55;;;;;;;4.48;100;95312.98;;;;
2019/10/06 05:35:10;;;;;;;21.4;16.55;;;;;;;4.48;100;95312.98;;;;
2019/10/06 05:36:12;;;;;;;21.4;16.55;;;;;;;4.48;100;95312.98;;;;
2019/10/06 05:37:13;;;;;;;21.4;16.55;;;;;;;4.48;100;95312.98;;;;
2019/10/06 05:38:14;;;;;;;21.4;16.55;;;;;;;4.48;100;95312.98;;;;
2019/10/06 05:39:15;;;;;;;21.4;16.55;;;;;;;4.48;100;95312.98;;;;
2019/10/06 05:40:16;;;;;;;21.4;16.55;;;;;;;4.48;100;95312.98;;;;
2019/10/06 05:41:17;;;;;;;25.45;19.1;;;;;;;4.49;100;95338.3;;;;
2019/10/06 05:42:18;;;;;;;25.45;19.1;;;;;;;4.49;100;95338.3;;;;
2019/10/06 05:43:20;;;;;;;25.45;19.1;;;;;;;4.49;100;95338.3;;;;
2019/10/06 05:45:30;;;;;;;25.45;19.1;;;;;;;4.49;100;95338.3;;;;
2019/10/06 05:46:40;;;;;;;25.45;19.1;;;;;;;4.49;100;95338.3;;;;
2019/10/06 05:47:42;;;;;;;25.45;19.1;;;;;;;4.49;100;95338.3;;;;
2019/10/06 05:49:03;;;;;;;25.45;19.1;;;;;;;4.49;100;95338.3;;;;
2019/10/06 05:50:27;;;;;;;25.45;19.1;;;;;;;4.49;100;95338.3;;;;
2019/10/06 05:51:32;;;;;;;25.45;19.1;;;;;;;4.49;100;95338.3;;;;
2019/10/06 05:52:33;;;;;;;29.90001;20.9;;;;;;;4.74;100;95333.18;;;;
2019/10/06 05:53:34;;;;;;;29.90001;20.9;;;;;;;4.74;100;95333.18;;;;
2019/10/06 05:54:35;;;;;;;29.90001;20.9;;;;;;;4.74;100;95333.18;;;;
2019/10/06 05:55:36;;;;;;;29.90001;20.9;;;;;;;4.74;100;95333.18;;;;
2019/10/06 05:56:38;;;;;;;29.90001;20.9;;;;;;;4.74;100;95333.18;;;;
2019/10/06 05:57:39;;;;;;;29.90001;20.9;;;;;;;4.74;100;95333.18;;;;
2019/10/06 05:58:40;;;;;;;29.90001;20.9;;;;;;;4.74;100;95333.18;;;;
2019/10/06 05:59:41;;;;;;;29.90001;20.9;;;;;;;4.74;100;95333.18;;;;
2019/10/06 06:00:42;;;;;;;29.90001;20.9;;;;;;;4.74;100;95333.18;;;;
2019/10/06 06:01:43;;;;;;;29.90001;20.9;;;;;;;4.74;100;95333.18;;;;
2019/10/06 06:02:44;;;;;;;30.35;22.5;;;;;;;5.07;100;95339.47;;;;
2019/10/06 06:03:46;;;;;;;30.35;22.5;;;;;;;5.07;100;95339.47;;;;
2019/10/06 06:04:47;;;;;;;30.35;22.5;;;;;;;5.07;100;95339.47;;;;
2019/10/06 06:05:48;;;;;;;30.35;22.5;;;;;;;5.07;100;95339.47;;;;
2019/10/06 06:06:49;;;;;;;30.35;22.5;;;;;;;5.07;100;95339.47;;;;
2019/10/06 06:07:50;;;;;;;30.35;22.5;;;;;;;5.07;100;95339.47;;;;
2019/10/06 06:08:51;;;;;;;30.35;22.5;;;;;;;5.07;100;95339.47;;;;
2019/10/06 06:09:52;;;;;;;30.35;22.5;;;;;;;5.07;100;95339.47;;;;
2019/10/06 06:10:53;;;;;;;30.35;22.5;;;;;;;5.07;100;95339.47;;;;
2019/10/06 06:11:54;;;;;;;30.35;22.5;;;;;;;5.07;100;95339.47;;;;
2019/10/06 06:12:56;;;;;;;30.35;22.5;;;;;;;5.07;100;95339.47;;;;
2019/10/06 06:13:57;;;;;;;32.4;24.95;;;;;;;5.5;100;95323.03;;;;
2019/10/06 06:14:58;;;;;;;32.4;24.95;;;;;;;5.5;100;95323.03;;;;
2019/10/06 06:15:59;;;;;;;32.4;24.95;;;;;;;5.5;100;95323.03;;;;
2019/10/06 06:17:00;;;;;;;32.4;24.95;;;;;;;5.5;100;95323.03;;;;
2019/10/06 06:18:02;;;;;;;32.4;24.95;;;;;;;5.5;100;95323.03;;;;
2019/10/06 06:19:03;;;;;;;32.4;24.95;;;;;;;5.5;100;95323.03;;;;
2019/10/06 06:20:04;;;;;;;32.4;24.95;;;;;;;5.5;100;95323.03;;;;
2019/10/06 06:21:06;;;;;;;32.4;24.95;;;;;;;5.5;100;95323.03;;;;
2019/10/06 06:22:07;;;;;;;32.4;24.95;;;;;;;5.5;100;95323.03;;;;
2019/10/06 06:23:08;;;;;;;32.4;24.95;;;;;;;5.5;100;95323.03;;;;
2019/10/06 06:24:09;;;;;;;25.3;21.2;;;;;;;5.88;100;95302.25;;;;
2019/10/06 06:25:10;;;;;;;25.3;21.2;;;;;;;5.88;100;95302.25;;;;
2019/10/06 06:26:12;;;;;;;25.3;21.2;;;;;;;5.88;100;95302.25;;;;
2019/10/06 06:27:13;;;;;;;25.3;21.2;;;;;;;5.88;100;95302.25;;;;
2019/10/06 06:28:14;;;;;;;25.3;21.2;;;;;;;5.88;100;95302.25;;;;
2019/10/06 06:29:15;;;;;;;25.3;21.2;;;;;;;5.88;100;95302.25;;;;
2019/10/06 06:30:16;;;;;;;25.3;21.2;;;;;;;5.88;100;95302.25;;;;
2019/10/06 06:31:18;;;;;;;25.3;21.2;;;;;;;5.88;100;95302.25;;;;
2019/10/06 06:32:20;;;;;;;25.3;21.2;;;;;;;5.88;100;95302.25;;;;
2019/10/06 06:33:21;;;;;;;25.3;21.2;;;;;;;5.88;100;95302.25;;;;
2019/10/06 06:34:22;;;;;;;22.65;19.15;;;;;;;6.41;100;95309.72;;;;
2019/10/06 06:35:23;;;;;;;22.65;19.15;;;;;;;6.41;100;95309.72;;;;
2019/10/06 06:36:26;;;;;;;22.65;19.15;;;;;;;6.41;100;95309.72;;;;
2019/10/06 06:37:27;;;;;;;22.65;19.15;;;;;;;6.41;100;95309.72;;;;
2019/10/06 06:38:28;;;;;;;22.65;19.15;;;;;;;6.41;100;95309.72;;;;
2019/10/06 06:39:29;;;;;;;22.65;19.15;;;;;;;6.41;100;95309.72;;;;
2019/10/06 06:40:30;;;;;;;22.65;19.15;;;;;;;6.41;100;95309.72;;;;
2019/10/06 06:41:32;;;;;;;22.65;19.15;;;;;;;6.41;100;95309.72;;;;
2019/10/06 06:42:33;;;;;;;22.65;19.15;;;;;;;6.41;100;95309.72;;;;
2019/10/06 06:43:34;;;;;;;22.65;19.15;;;;;;;6.41;100;95309.72;;;;
2019/10/06 06:44:35;;;;;;;22.65;19.15;;;;;;;6.41;100;95309.72;;;;
2019/10/06 06:45:36;;;;;;;21.5;17.45;;;;;;;6.78;100;95304.03;;;;
2019/10/06 06:46:37;;;;;;;21.5;17.45;;;;;;;6.78;100;95304.03;;;;